| time (UTC) | temp F | wind direction | speed knots | gust knots | rain 1hr in | rain 24hr in | rain mn in | humidity % | barometer mb |
| 20260507153155 | 54 | 278 | 0.9 | 2.6 | 0.00 | 0.57 | 0.55 | 86 | 1014.5 |
| 20260507150218 | 55 | 278 | 0.0 | 3.5 | 0.01 | 0.57 | 0.55 | 87 | 1014.5 |
| 20260507144713 | 55 | 258 | 0.9 | 1.7 | 0.02 | 0.60 | 0.55 | 87 | 1014.7 |
| 20260507141711 | 53 | 360 | 0.0 | 1.7 | 0.06 | 0.60 | 0.55 | 89 | 1014.7 |
| 20260507140210 | 51 | 9 | 0.0 | 3.5 | 0.06 | 0.58 | 0.54 | 87 | 1014.6 |
| 20260507134701 | 50 | 17 | 0.0 | 1.7 | 0.06 | 0.72 | 0.52 | 90 | 1014.8 |
| 20260507131711 | 45 | 219 | 0.0 | 1.7 | 0.27 | 0.69 | 0.50 | 95 | 1015.1 |
| 20260507124717 | 41 | 217 | 0.0 | 1.7 | 0.33 | 0.72 | 0.46 | 91 | 1015.4 |
| 20260507123200 | 44 | 217 | 0.0 | 3.5 | 0.36 | 0.67 | 0.41 | 87 | 1015.6 |
| 20260507120218 | 48 | 309 | 0.0 | 2.6 | 0.17 | 0.46 | 0.20 | 91 | 1015.0 |
| 20260507114655 | 50 | 218 | 2.6 | 6.1 | 0.13 | 0.51 | 0.13 | 89 | 1014.7 |
| 20260507111702 | 50 | 241 | 0.9 | 4.3 | 0.02 | 0.41 | 0.03 | 89 | 1014.5 |
| 20260507104715 | 51 | 254 | 2.6 | 7.0 | 0.00 | 0.47 | 0.01 | 87 | 1014.8 |
| 20260507101719 | 54 | 259 | 2.6 | 6.1 | 0.00 | 0.47 | 0.01 | 84 | 1014.5 |
| 20260507100207 | 56 | 234 | 2.6 | 8.7 | 0.00 | 0.47 | 0.01 | 79 | 1014.6 |
| 20260507093224 | 55 | 198 | 2.6 | 6.1 | 0.00 | 0.48 | 0.01 | 79 | 1014.5 |
| 20260507090226 | 54 | 246 | 2.6 | 5.2 | 0.01 | 0.48 | 0.01 | 81 | 1014.4 |
| 20260507084720 | 54 | 270 | 0.9 | 6.1 | 0.01 | 0.48 | 0.01 | 81 | 1014.5 |
| 20260507083208 | 54 | 307 | 1.7 | 6.1 | 0.01 | 0.48 | 0.01 | 83 | 1014.5 |
| 20260507080211 | 51 | 259 | 0.9 | 6.1 | 0.00 | 0.47 | 0.00 | 85 | 1014.4 |
| 20260507073210 | 51 | 205 | 0.0 | 0.9 | 0.00 | 0.50 | 0.00 | 93 | 1014.2 |
| 20260507070202 | 48 | 205 | 0.0 | 0.0 | 0.00 | 0.50 | 0.00 | 96 | 1014.0 |
| 20260507063216 | 46 | 205 | 0.0 | 0.0 | 0.00 | 0.62 | 0.00 | 96 | 1013.9 |
| 20260507061700 | 43 | 205 | 0.0 | 0.0 | 0.00 | 0.62 | 0.00 | 96 | 1013.9 |
| 20260507060155 | 41 | 205 | 0.0 | 0.0 | 0.00 | 0.62 | 0.00 | 96 | 1014.0 |
| 20260507053213 | 36 | 205 | 0.0 | 0.0 | 0.00 | 0.72 | 0.00 | 96 | 1014.0 |
| 20260507050200 | 33 | 205 | 0.0 | 0.0 | 0.00 | 0.72 | 0.00 | 95 | 1013.6 |
| 20260507043222 | 32 | 205 | 0.0 | 0.0 | 0.00 | 0.73 | 0.00 | 95 | 1013.4 |
| 20260507041710 | 32 | 205 | 0.0 | 0.0 | 0.00 | 0.73 | 0.00 | 94 | 1013.3 |
| 20260507034716 | 32 | 205 | 0.0 | 0.0 | 0.00 | 0.73 | 0.00 | 94 | 1013.1 |
| 20260507033148 | 33 | 205 | 0.0 | 0.0 | 0.00 | 0.73 | 0.00 | 95 | 1013.1 |
| 20260507030214 | 33 | 205 | 0.0 | 0.0 | 0.00 | 0.73 | 0.00 | 94 | 1013.1 |
| 20260507023202 | 33 | 205 | 0.0 | 0.0 | 0.00 | 0.73 | 0.00 | 94 | 1013.0 |
| 20260507020204 | 34 | 205 | 0.0 | 0.0 | 0.00 | 0.73 | 0.00 | 94 | 1012.8 |
| 20260507014700 | 35 | 205 | 0.0 | 0.0 | 0.00 | 0.73 | 0.00 | 94 | 1012.8 |
| 20260507011710 | 36 | 205 | 0.0 | 0.0 | 0.00 | 0.73 | 0.00 | 93 | 1012.8 |
| 20260507010150 | 37 | 205 | 0.0 | 0.0 | 0.00 | 0.73 | 0.00 | 93 | 1012.7 |
| 20260507003202 | 40 | 205 | 0.0 | 0.0 | 0.00 | 0.73 | 0.00 | 94 | 1012.4 |
| 20260507000220 | 42 | 205 | 0.0 | 0.0 | 0.00 | 0.73 | 0.00 | 94 | 1012.6 |
| 20260506234715 | 43 | 205 | 0.0 | 0.0 | 0.00 | 0.73 | 0.00 | 94 | 1012.4 |
| 20260506231704 | 43 | 205 | 0.0 | 0.0 | 0.00 | 0.73 | 0.00 | 95 | 1012.4 |
| 20260506230148 | 42 | 205 | 0.0 | 0.0 | 0.00 | 0.73 | 0.00 | 95 | 1012.5 |
| 20260506223158 | 42 | 205 | 0.0 | 0.0 | 0.00 | 0.73 | 0.00 | 93 | 1012.4 |
| 20260506220302 | 45 | 205 | 0.0 | 0.0 | 0.00 | 0.73 | 0.00 | 93 | 1012.4 |
| 20260506214704 | 46 | 205 | 0.0 | 0.0 | 0.00 | 0.73 | 0.73 | 93 | 1012.4 |
| 20260506211714 | 48 | 205 | 0.0 | 0.0 | 0.00 | 0.73 | 0.73 | 94 | 1012.4 |
| 20260506210209 | 48 | 205 | 0.0 | 0.0 | 0.00 | 0.73 | 0.73 | 95 | 1012.3 |
| 20260506204701 | 47 | 205 | 0.0 | 0.0 | 0.00 | 0.73 | 0.73 | 95 | 1012.4 |
| 20260506203148 | 47 | 205 | 0.0 | 1.7 | 0.00 | 0.73 | 0.73 | 94 | 1012.3 |
| 20260506200215 | 48 | 205 | 0.0 | 0.0 | 0.01 | 0.73 | 0.73 | 93 | 1011.9 |
| 20260506193214 | 49 | 205 | 0.0 | 1.7 | 0.02 | 0.73 | 0.73 | 93 | 1011.5 |
| 20260506190205 | 49 | 282 | 0.9 | 3.5 | 0.01 | 0.72 | 0.72 | 94 | 1011.1 |
| 20260506184700 | 49 | 114 | 0.0 | 1.7 | 0.00 | 0.72 | 0.72 | 93 | 1011.1 |
| 20260506181712 | 49 | 114 | 0.0 | 1.7 | 0.00 | 0.72 | 0.72 | 93 | 1010.9 |
| 20260506180149 | 50 | 114 | 0.0 | 1.7 | 0.00 | 0.72 | 0.72 | 92 | 1011.0 |
| 20260506173204 | 51 | 220 | 0.0 | 0.0 | 0.00 | 0.72 | 0.72 | 92 | 1010.7 |
| 20260506171656 | 51 | 220 | 0.0 | 1.7 | 0.00 | 0.72 | 0.72 | 91 | 1010.6 |
| 20260506170147 | 51 | 214 | 0.0 | 2.6 | 0.00 | 0.72 | 0.72 | 91 | 1010.5 |
| 20260506163204 | 51 | 232 | 0.0 | 4.3 | 0.00 | 0.73 | 0.72 | 91 | 1010.2 |
| 20260506160210 | 51 | 267 | 0.9 | 2.6 | 0.00 | 0.73 | 0.72 | 92 | 1010.5 |